sensor_id;sensor_type;location;lat;lon;timestamp;temperature;humidity
10964;DHT22;5534;48.784;9.190;2022-12-29T00:01:55;9.80;99.90
10964;DHT22;5534;48.784;9.190;2022-12-29T00:04:22;9.90;99.90
10964;DHT22;5534;48.784;9.190;2022-12-29T00:06:48;9.90;99.90
10964;DHT22;5534;48.784;9.190;2022-12-29T00:09:15;9.90;99.90
10964;DHT22;5534;48.784;9.190;2022-12-29T00:11:41;9.90;99.90
10964;DHT22;5534;48.784;9.190;2022-12-29T00:14:09;9.90;99.90
10964;DHT22;5534;48.784;9.190;2022-12-29T00:16:53;9.90;99.90
10964;DHT22;5534;48.784;9.190;2022-12-29T00:19:19;10.00;99.90
10964;DHT22;5534;48.784;9.190;2022-12-29T00:22:04;10.00;99.90
10964;DHT22;5534;48.784;9.190;2022-12-29T00:24:48;10.00;99.90
10964;DHT22;5534;48.784;9.190;2022-12-29T00:27:33;10.10;99.90
10964;DHT22;5534;48.784;9.190;2022-12-29T00:30:22;10.20;99.90
10964;DHT22;5534;48.784;9.190;2022-12-29T00:33:15;10.10;99.90
10964;DHT22;5534;48.784;9.190;2022-12-29T00:38:38;10.10;99.90
10964;DHT22;5534;48.784;9.190;2022-12-29T00:41:23;10.20;99.90
10964;DHT22;5534;48.784;9.190;2022-12-29T00:44:09;10.20;99.90
10964;DHT22;5534;48.784;9.190;2022-12-29T00:46:42;10.20;99.90
10964;DHT22;5534;48.784;9.190;2022-12-29T00:49:10;10.20;99.90
10964;DHT22;5534;48.784;9.190;2022-12-29T00:51:58;10.30;99.90
10964;DHT22;5534;48.784;9.190;2022-12-29T00:54:24;10.30;99.90
10964;DHT22;5534;48.784;9.190;2022-12-29T00:56:51;10.30;99.90
10964;DHT22;5534;48.784;9.190;2022-12-29T00:59:18;10.30;99.90
10964;DHT22;5534;48.784;9.190;2022-12-29T01:01:44;10.40;99.90
10964;DHT22;5534;48.784;9.190;2022-12-29T01:04:10;10.30;99.90
10964;DHT22;5534;48.784;9.190;2022-12-29T01:06:38;10.40;99.90
10964;DHT22;5534;48.784;9.190;2022-12-29T01:09:03;10.40;99.90
10964;DHT22;5534;48.784;9.190;2022-12-29T01:11:48;10.40;99.90
10964;DHT22;5534;48.784;9.190;2022-12-29T01:14:14;10.40;99.90
10964;DHT22;5534;48.784;9.190;2022-12-29T01:16:40;10.50;99.90
10964;DHT22;5534;48.784;9.190;2022-12-29T01:19:06;10.50;99.90
10964;DHT22;5534;48.784;9.190;2022-12-29T01:21:32;10.50;99.90
10964;DHT22;5534;48.784;9.190;2022-12-29T01:23:58;10.60;99.90
10964;DHT22;5534;48.784;9.190;2022-12-29T01:26:24;10.60;99.90
10964;DHT22;5534;48.784;9.190;2022-12-29T01:28:49;10.60;99.90
10964;DHT22;5534;48.784;9.190;2022-12-29T01:31:16;10.60;99.90
10964;DHT22;5534;48.784;9.190;2022-12-29T01:33:42;10.70;99.90
10964;DHT22;5534;48.784;9.190;2022-12-29T01:36:12;10.70;99.90
10964;DHT22;5534;48.784;9.190;2022-12-29T01:38:39;10.80;99.90
10964;DHT22;5534;48.784;9.190;2022-12-29T01:41:06;10.90;99.90
10964;DHT22;5534;48.784;9.190;2022-12-29T01:43:49;10.90;99.90
10964;DHT22;5534;48.784;9.190;2022-12-29T01:46:20;10.90;99.90
10964;DHT22;5534;48.784;9.190;2022-12-29T01:48:52;10.90;99.90
10964;DHT22;5534;48.784;9.190;2022-12-29T01:51:21;10.90;99.90
10964;DHT22;5534;48.784;9.190;2022-12-29T01:53:48;10.90;99.90
10964;DHT22;5534;48.784;9.190;2022-12-29T01:56:17;10.90;99.90
10964;DHT22;5534;48.784;9.190;2022-12-29T01:58:47;10.90;99.90
10964;DHT22;5534;48.784;9.190;2022-12-29T02:01:15;10.90;99.90
10964;DHT22;5534;48.784;9.190;2022-12-29T02:03:42;10.90;99.90
10964;DHT22;5534;48.784;9.190;2022-12-29T02:06:23;10.90;99.90
10964;DHT22;5534;48.784;9.190;2022-12-29T02:08:50;10.80;99.90
10964;DHT22;5534;48.784;9.190;2022-12-29T02:11:18;10.80;99.90
10964;DHT22;5534;48.784;9.190;2022-12-29T02:13:44;10.80;99.90
10964;DHT22;5534;48.784;9.190;2022-12-29T02:24:30;10.90;99.90
10964;DHT22;5534;48.784;9.190;2022-12-29T02:36:06;10.80;99.90
10964;DHT22;5534;48.784;9.190;2022-12-29T02:41:33;10.80;99.90
10964;DHT22;5534;48.784;9.190;2022-12-29T02:44:43;10.90;99.90
10964;DHT22;5534;48.784;9.190;2022-12-29T02:47:04;10.80;99.90
10964;DHT22;5534;48.784;9.190;2022-12-29T02:49:56;10.80;99.90
10964;DHT22;5534;48.784;9.190;2022-12-29T02:52:26;10.80;99.90
10964;DHT22;5534;48.784;9.190;2022-12-29T02:54:54;10.90;99.90
10964;DHT22;5534;48.784;9.190;2022-12-29T02:59:47;10.90;99.90
10964;DHT22;5534;48.784;9.190;2022-12-29T03:02:47;11.00;99.90
10964;DHT22;5534;48.784;9.190;2022-12-29T03:05:41;11.00;99.90
10964;DHT22;5534;48.784;9.190;2022-12-29T03:11:02;11.00;99.90
10964;DHT22;5534;48.784;9.190;2022-12-29T03:13:46;11.00;99.90
10964;DHT22;5534;48.784;9.190;2022-12-29T03:16:47;11.00;99.90
10964;DHT22;5534;48.784;9.190;2022-12-29T03:19:19;11.00;99.90
10964;DHT22;5534;48.784;9.190;2022-12-29T03:21:57;11.10;99.90
10964;DHT22;5534;48.784;9.190;2022-12-29T03:24:50;11.00;99.90
10964;DHT22;5534;48.784;9.190;2022-12-29T03:27:20;10.90;99.90
10964;DHT22;5534;48.784;9.190;2022-12-29T03:29:53;11.00;99.90
10964;DHT22;5534;48.784;9.190;2022-12-29T03:32:22;11.10;99.90
10964;DHT22;5534;48.784;9.190;2022-12-29T03:34:49;11.10;99.90
10964;DHT22;5534;48.784;9.190;2022-12-29T03:37:25;11.10;99.90
10964;DHT22;5534;48.784;9.190;2022-12-29T03:39:51;11.10;99.90
10964;DHT22;5534;48.784;9.190;2022-12-29T03:42:23;11.10;99.90
10964;DHT22;5534;48.784;9.190;2022-12-29T03:44:54;11.10;99.90
10964;DHT22;5534;48.784;9.190;2022-12-29T03:47:20;11.30;99.90
10964;DHT22;5534;48.784;9.190;2022-12-29T03:49:46;11.30;99.90
10964;DHT22;5534;48.784;9.190;2022-12-29T03:52:12;11.30;99.90
10964;DHT22;5534;48.784;9.190;2022-12-29T03:54:38;11.30;99.90
10964;DHT22;5534;48.784;9.190;2022-12-29T03:57:04;11.30;99.90
10964;DHT22;5534;48.784;9.190;2022-12-29T03:59:32;11.40;99.90
10964;DHT22;5534;48.784;9.190;2022-12-29T04:01:59;11.40;99.90
10964;DHT22;5534;48.784;9.190;2022-12-29T04:04:25;11.50;99.90
10964;DHT22;5534;48.784;9.190;2022-12-29T04:06:50;11.50;99.90
10964;DHT22;5534;48.784;9.190;2022-12-29T04:09:16;11.40;99.90
10964;DHT22;5534;48.784;9.190;2022-12-29T04:11:42;11.50;99.90
10964;DHT22;5534;48.784;9.190;2022-12-29T04:14:07;11.50;99.90
10964;DHT22;5534;48.784;9.190;2022-12-29T04:16:33;11.40;99.90
10964;DHT22;5534;48.784;9.190;2022-12-29T04:19:02;11.40;99.90
10964;DHT22;5534;48.784;9.190;2022-12-29T04:21:27;11.50;99.90
10964;DHT22;5534;48.784;9.190;2022-12-29T04:23:53;11.60;99.90
10964;DHT22;5534;48.784;9.190;2022-12-29T04:26:19;11.70;99.90
10964;DHT22;5534;48.784;9.190;2022-12-29T04:28:45;11.60;99.90
10964;DHT22;5534;48.784;9.190;2022-12-29T04:31:10;11.50;99.90
10964;DHT22;5534;48.784;9.190;2022-12-29T04:33:36;11.50;99.90
10964;DHT22;5534;48.784;9.190;2022-12-29T04:36:02;11.40;99.90
10964;DHT22;5534;48.784;9.190;2022-12-29T04:38:28;11.40;99.90
10964;DHT22;5534;48.784;9.190;2022-12-29T04:40:54;11.40;99.90
10964;DHT22;5534;48.784;9.190;2022-12-29T04:43:20;11.40;99.90
10964;DHT22;5534;48.784;9.190;2022-12-29T04:45:47;11.40;99.90
10964;DHT22;5534;48.784;9.190;2022-12-29T04:48:13;11.40;99.90
10964;DHT22;5534;48.784;9.190;2022-12-29T04:50:40;11.40;99.90
10964;DHT22;5534;48.784;9.190;2022-12-29T04:53:07;11.50;99.90
10964;DHT22;5534;48.784;9.190;2022-12-29T04:55:33;11.50;99.90
10964;DHT22;5534;48.784;9.190;2022-12-29T04:57:59;11.50;99.90
10964;DHT22;5534;48.784;9.190;2022-12-29T05:00:25;11.50;99.90
10964;DHT22;5534;48.784;9.190;2022-12-29T05:02:51;11.50;99.90
10964;DHT22;5534;48.784;9.190;2022-12-29T05:05:17;11.50;99.90
10964;DHT22;5534;48.784;9.190;2022-12-29T05:07:43;11.60;99.90
10964;DHT22;5534;48.784;9.190;2022-12-29T05:10:09;11.60;99.90
10964;DHT22;5534;48.784;9.190;2022-12-29T05:12:36;11.50;99.90
10964;DHT22;5534;48.784;9.190;2022-12-29T05:15:03;11.60;99.90
10964;DHT22;5534;48.784;9.190;2022-12-29T05:17:29;11.60;99.90
10964;DHT22;5534;48.784;9.190;2022-12-29T05:19:55;11.60;99.90
10964;DHT22;5534;48.784;9.190;2022-12-29T05:22:21;11.60;99.90
10964;DHT22;5534;48.784;9.190;2022-12-29T05:24:47;11.50;99.90
10964;DHT22;5534;48.784;9.190;2022-12-29T05:27:13;11.70;99.90
10964;DHT22;5534;48.784;9.190;2022-12-29T05:29:38;11.70;99.90
10964;DHT22;5534;48.784;9.190;2022-12-29T05:32:04;11.70;99.90
10964;DHT22;5534;48.784;9.190;2022-12-29T05:34:30;11.60;99.90
10964;DHT22;5534;48.784;9.190;2022-12-29T05:36:56;11.70;99.90
10964;DHT22;5534;48.784;9.190;2022-12-29T05:39:21;11.70;99.90
10964;DHT22;5534;48.784;9.190;2022-12-29T05:41:47;11.70;99.90
10964;DHT22;5534;48.784;9.190;2022-12-29T05:44:13;11.70;99.90
10964;DHT22;5534;48.784;9.190;2022-12-29T05:46:39;11.70;99.90
10964;DHT22;5534;48.784;9.190;2022-12-29T05:49:05;11.60;99.90
10964;DHT22;5534;48.784;9.190;2022-12-29T05:51:31;11.60;99.90
10964;DHT22;5534;48.784;9.190;2022-12-29T05:53:57;11.60;99.90
10964;DHT22;5534;48.784;9.190;2022-12-29T05:56:23;11.60;99.90
10964;DHT22;5534;48.784;9.190;2022-12-29T05:58:48;11.70;99.90
10964;DHT22;5534;48.784;9.190;2022-12-29T06:01:14;11.70;99.90
10964;DHT22;5534;48.784;9.190;2022-12-29T06:03:40;11.70;99.90
10964;DHT22;5534;48.784;9.190;2022-12-29T06:06:06;11.80;99.90
10964;DHT22;5534;48.784;9.190;2022-12-29T06:08:31;11.80;99.90
10964;DHT22;5534;48.784;9.190;2022-12-29T06:10:57;11.80;99.90
10964;DHT22;5534;48.784;9.190;2022-12-29T06:13:23;11.70;99.90
10964;DHT22;5534;48.784;9.190;2022-12-29T06:15:49;11.80;99.90
10964;DHT22;5534;48.784;9.190;2022-12-29T06:18:15;11.80;99.90
10964;DHT22;5534;48.784;9.190;2022-12-29T06:20:41;11.80;99.90
10964;DHT22;5534;48.784;9.190;2022-12-29T06:23:06;11.90;99.90
10964;DHT22;5534;48.784;9.190;2022-12-29T06:25:32;11.90;99.90
10964;DHT22;5534;48.784;9.190;2022-12-29T06:27:59;11.80;99.90
10964;DHT22;5534;48.784;9.190;2022-12-29T06:30:25;11.90;99.90
10964;DHT22;5534;48.784;9.190;2022-12-29T06:32:51;11.90;99.90
10964;DHT22;5534;48.784;9.190;2022-12-29T06:35:17;11.90;99.90
10964;DHT22;5534;48.784;9.190;2022-12-29T06:37:43;11.90;99.90
10964;DHT22;5534;48.784;9.190;2022-12-29T06:40:10;11.90;99.90
10964;DHT22;5534;48.784;9.190;2022-12-29T06:42:37;12.00;99.90
10964;DHT22;5534;48.784;9.190;2022-12-29T06:45:03;11.90;99.90
10964;DHT22;5534;48.784;9.190;2022-12-29T06:47:29;11.90;99.90
10964;DHT22;5534;48.784;9.190;2022-12-29T06:49:55;11.80;99.90
10964;DHT22;5534;48.784;9.190;2022-12-29T06:52:21;11.90;99.90
10964;DHT22;5534;48.784;9.190;2022-12-29T06:54:46;11.80;99.90
10964;DHT22;5534;48.784;9.190;2022-12-29T06:57:13;11.80;99.90
10964;DHT22;5534;48.784;9.190;2022-12-29T06:59:39;11.80;99.90
10964;DHT22;5534;48.784;9.190;2022-12-29T07:02:05;11.90;99.90
10964;DHT22;5534;48.784;9.190;2022-12-29T07:04:31;11.80;99.90
10964;DHT22;5534;48.784;9.190;2022-12-29T07:06:57;11.70;99.90
10964;DHT22;5534;48.784;9.190;2022-12-29T07:09:22;11.80;99.90
10964;DHT22;5534;48.784;9.190;2022-12-29T07:11:48;11.80;99.90
10964;DHT22;5534;48.784;9.190;2022-12-29T07:14:14;11.70;99.90
10964;DHT22;5534;48.784;9.190;2022-12-29T07:16:39;11.90;99.90
10964;DHT22;5534;48.784;9.190;2022-12-29T07:19:05;11.80;99.90
10964;DHT22;5534;48.784;9.190;2022-12-29T07:21:31;11.90;99.90
10964;DHT22;5534;48.784;9.190;2022-12-29T07:23:57;11.80;99.90
10964;DHT22;5534;48.784;9.190;2022-12-29T07:26:22;11.80;99.90
10964;DHT22;5534;48.784;9.190;2022-12-29T07:28:48;11.90;99.90
10964;DHT22;5534;48.784;9.190;2022-12-29T07:31:16;11.80;99.90
10964;DHT22;5534;48.784;9.190;2022-12-29T07:33:43;11.80;99.90
10964;DHT22;5534;48.784;9.190;2022-12-29T07:36:10;11.80;99.90
10964;DHT22;5534;48.784;9.190;2022-12-29T07:38:35;11.80;99.90
10964;DHT22;5534;48.784;9.190;2022-12-29T07:41:01;11.70;99.90
10964;DHT22;5534;48.784;9.190;2022-12-29T07:43:27;11.60;99.90
10964;DHT22;5534;48.784;9.190;2022-12-29T07:45:53;11.70;99.90
10964;DHT22;5534;48.784;9.190;2022-12-29T07:48:19;11.70;99.90
10964;DHT22;5534;48.784;9.190;2022-12-29T07:50:45;11.60;99.90
10964;DHT22;5534;48.784;9.190;2022-12-29T07:53:10;11.60;99.90
10964;DHT22;5534;48.784;9.190;2022-12-29T07:55:36;11.70;99.90
10964;DHT22;5534;48.784;9.190;2022-12-29T07:58:02;11.70;99.90
10964;DHT22;5534;48.784;9.190;2022-12-29T08:00:28;11.70;99.90
10964;DHT22;5534;48.784;9.190;2022-12-29T08:02:53;11.70;99.90
10964;DHT22;5534;48.784;9.190;2022-12-29T08:05:19;11.80;99.90
10964;DHT22;5534;48.784;9.190;2022-12-29T08:07:45;11.80;99.90
10964;DHT22;5534;48.784;9.190;2022-12-29T08:10:12;11.80;99.90
10964;DHT22;5534;48.784;9.190;2022-12-29T08:12:39;11.90;99.90
10964;DHT22;5534;48.784;9.190;2022-12-29T08:15:06;11.90;99.90
10964;DHT22;5534;48.784;9.190;2022-12-29T08:17:31;11.90;99.90
10964;DHT22;5534;48.784;9.190;2022-12-29T08:19:58;12.00;99.90
10964;DHT22;5534;48.784;9.190;2022-12-29T08:22:24;12.00;99.90
10964;DHT22;5534;48.784;9.190;2022-12-29T08:24:49;12.00;99.90
10964;DHT22;5534;48.784;9.190;2022-12-29T08:27:15;11.90;99.90
10964;DHT22;5534;48.784;9.190;2022-12-29T08:29:41;11.80;99.90
10964;DHT22;5534;48.784;9.190;2022-12-29T08:32:07;11.90;99.90
10964;DHT22;5534;48.784;9.190;2022-12-29T08:34:33;11.80;99.90
10964;DHT22;5534;48.784;9.190;2022-12-29T08:36:59;11.80;99.90
10964;DHT22;5534;48.784;9.190;2022-12-29T08:39:24;11.80;99.90
10964;DHT22;5534;48.784;9.190;2022-12-29T08:41:50;11.80;99.90
10964;DHT22;5534;48.784;9.190;2022-12-29T08:44:16;11.80;99.90
10964;DHT22;5534;48.784;9.190;2022-12-29T08:46:43;11.80;99.90
10964;DHT22;5534;48.784;9.190;2022-12-29T08:49:09;11.70;99.90
10964;DHT22;5534;48.784;9.190;2022-12-29T08:51:36;11.90;99.90
10964;DHT22;5534;48.784;9.190;2022-12-29T08:54:02;12.10;99.90
10964;DHT22;5534;48.784;9.190;2022-12-29T08:56:28;12.00;99.90
10964;DHT22;5534;48.784;9.190;2022-12-29T08:58:54;12.20;99.90
10964;DHT22;5534;48.784;9.190;2022-12-29T09:01:20;12.10;99.90
10964;DHT22;5534;48.784;9.190;2022-12-29T09:03:46;12.00;99.90
10964;DHT22;5534;48.784;9.190;2022-12-29T09:06:13;11.90;99.90
10964;DHT22;5534;48.784;9.190;2022-12-29T09:08:39;11.90;99.90
10964;DHT22;5534;48.784;9.190;2022-12-29T09:11:17;12.00;99.90
10964;DHT22;5534;48.784;9.190;2022-12-29T09:13:44;12.00;99.90
10964;DHT22;5534;48.784;9.190;2022-12-29T09:16:10;12.00;99.90
10964;DHT22;5534;48.784;9.190;2022-12-29T09:18:35;12.00;99.90
10964;DHT22;5534;48.784;9.190;2022-12-29T09:21:04;12.00;99.90
10964;DHT22;5534;48.784;9.190;2022-12-29T09:23:31;12.10;99.90
10964;DHT22;5534;48.784;9.190;2022-12-29T09:25:56;12.10;99.90
10964;DHT22;5534;48.784;9.190;2022-12-29T09:28:23;12.10;99.90
10964;DHT22;5534;48.784;9.190;2022-12-29T09:30:48;12.30;99.90
10964;DHT22;5534;48.784;9.190;2022-12-29T09:33:15;12.20;99.90
10964;DHT22;5534;48.784;9.190;2022-12-29T09:35:45;12.30;99.90
10964;DHT22;5534;48.784;9.190;2022-12-29T09:38:11;12.20;99.90
10964;DHT22;5534;48.784;9.190;2022-12-29T09:40:38;12.40;99.90
10964;DHT22;5534;48.784;9.190;2022-12-29T09:46:21;12.60;99.90
10964;DHT22;5534;48.784;9.190;2022-12-29T09:49:16;12.60;99.90
10964;DHT22;5534;48.784;9.190;2022-12-29T09:51:41;12.70;99.90
10964;DHT22;5534;48.784;9.190;2022-12-29T09:57:13;12.70;99.90
10964;DHT22;5534;48.784;9.190;2022-12-29T09:59:43;13.00;99.90
10964;DHT22;5534;48.784;9.190;2022-12-29T10:04:55;13.10;99.90
10964;DHT22;5534;48.784;9.190;2022-12-29T10:10:34;13.00;99.90
10964;DHT22;5534;48.784;9.190;2022-12-29T10:16:47;13.10;99.90
10964;DHT22;5534;48.784;9.190;2022-12-29T10:24:56;13.10;99.90
10964;DHT22;5534;48.784;9.190;2022-12-29T10:27:24;13.00;99.90
10964;DHT22;5534;48.784;9.190;2022-12-29T10:29:55;13.00;99.90
10964;DHT22;5534;48.784;9.190;2022-12-29T10:32:48;13.10;99.90
10964;DHT22;5534;48.784;9.190;2022-12-29T10:35:19;13.10;99.90
10964;DHT22;5534;48.784;9.190;2022-12-29T10:42:53;13.20;99.90
10964;DHT22;5534;48.784;9.190;2022-12-29T10:45:24;13.40;99.90
10964;DHT22;5534;48.784;9.190;2022-12-29T10:48:05;13.50;99.90
10964;DHT22;5534;48.784;9.190;2022-12-29T10:50:34;13.60;99.90
10964;DHT22;5534;48.784;9.190;2022-12-29T10:53:04;13.60;99.90
10964;DHT22;5534;48.784;9.190;2022-12-29T10:55:36;13.60;99.90
10964;DHT22;5534;48.784;9.190;2022-12-29T10:58:07;13.80;99.90
10964;DHT22;5534;48.784;9.190;2022-12-29T11:00:36;13.80;99.90
10964;DHT22;5534;48.784;9.190;2022-12-29T11:03:16;13.90;99.90
10964;DHT22;5534;48.784;9.190;2022-12-29T11:06:09;14.10;99.90
10964;DHT22;5534;48.784;9.190;2022-12-29T11:08:38;14.10;99.90
10964;DHT22;5534;48.784;9.190;2022-12-29T11:11:09;14.20;99.90
10964;DHT22;5534;48.784;9.190;2022-12-29T11:13:57;13.90;99.90
10964;DHT22;5534;48.784;9.190;2022-12-29T11:16:28;14.00;99.90
10964;DHT22;5534;48.784;9.190;2022-12-29T11:18:56;14.00;99.90
10964;DHT22;5534;48.784;9.190;2022-12-29T11:21:31;13.90;99.90
10964;DHT22;5534;48.784;9.190;2022-12-29T11:24:17;14.00;99.90
10964;DHT22;5534;48.784;9.190;2022-12-29T11:26:44;14.00;99.90
10964;DHT22;5534;48.784;9.190;2022-12-29T11:31:43;14.10;99.90
10964;DHT22;5534;48.784;9.190;2022-12-29T11:34:21;14.00;99.90
10964;DHT22;5534;48.784;9.190;2022-12-29T11:36:49;13.90;99.90
10964;DHT22;5534;48.784;9.190;2022-12-29T11:42:18;13.90;99.90
10964;DHT22;5534;48.784;9.190;2022-12-29T11:44:47;13.80;99.90
10964;DHT22;5534;48.784;9.190;2022-12-29T11:47:23;13.80;99.90
10964;DHT22;5534;48.784;9.190;2022-12-29T11:49:53;13.80;99.90
10964;DHT22;5534;48.784;9.190;2022-12-29T11:52:23;13.80;99.90
10964;DHT22;5534;48.784;9.190;2022-12-29T11:54:50;13.60;99.90
10964;DHT22;5534;48.784;9.190;2022-12-29T11:57:17;13.80;99.90
10964;DHT22;5534;48.784;9.190;2022-12-29T12:02:41;13.50;99.90
10964;DHT22;5534;48.784;9.190;2022-12-29T12:05:24;13.40;99.90
10964;DHT22;5534;48.784;9.190;2022-12-29T12:08:28;13.40;99.90
10964;DHT22;5534;48.784;9.190;2022-12-29T12:11:44;13.40;99.90
10964;DHT22;5534;48.784;9.190;2022-12-29T12:13:55;13.30;99.90
10964;DHT22;5534;48.784;9.190;2022-12-29T12:16:29;13.20;99.90
10964;DHT22;5534;48.784;9.190;2022-12-29T12:21:47;13.20;99.90
10964;DHT22;5534;48.784;9.190;2022-12-29T12:24:31;13.20;99.90
10964;DHT22;5534;48.784;9.190;2022-12-29T12:29:47;13.20;99.90
10964;DHT22;5534;48.784;9.190;2022-12-29T12:32:22;13.20;99.90
10964;DHT22;5534;48.784;9.190;2022-12-29T12:34:50;13.30;99.90
10964;DHT22;5534;48.784;9.190;2022-12-29T12:40:45;13.30;99.90
10964;DHT22;5534;48.784;9.190;2022-12-29T12:54:34;13.30;99.90
10964;DHT22;5534;48.784;9.190;2022-12-29T12:59:56;13.30;99.90
10964;DHT22;5534;48.784;9.190;2022-12-29T13:14:07;13.70;99.90
10964;DHT22;5534;48.784;9.190;2022-12-29T13:19:59;13.70;99.90
10964;DHT22;5534;48.784;9.190;2022-12-29T13:27:50;13.70;99.90
10964;DHT22;5534;48.784;9.190;2022-12-29T13:30:21;13.70;99.90
10964;DHT22;5534;48.784;9.190;2022-12-29T13:33:19;13.70;99.90
10964;DHT22;5534;48.784;9.190;2022-12-29T13:36:02;13.60;99.90
10964;DHT22;5534;48.784;9.190;2022-12-29T13:38:34;13.50;99.90
10964;DHT22;5534;48.784;9.190;2022-12-29T13:41:50;13.50;99.90
10964;DHT22;5534;48.784;9.190;2022-12-29T13:46:49;13.30;99.90
10964;DHT22;5534;48.784;9.190;2022-12-29T13:49:20;13.30;99.90
10964;DHT22;5534;48.784;9.190;2022-12-29T13:51:51;13.40;99.90
10964;DHT22;5534;48.784;9.190;2022-12-29T13:59:57;13.20;99.90
10964;DHT22;5534;48.784;9.190;2022-12-29T14:02:42;13.30;99.90
10964;DHT22;5534;48.784;9.190;2022-12-29T14:07:46;13.10;99.90
10964;DHT22;5534;48.784;9.190;2022-12-29T14:10:33;13.30;99.90
10964;DHT22;5534;48.784;9.190;2022-12-29T14:13:22;13.30;99.90
10964;DHT22;5534;48.784;9.190;2022-12-29T14:15:56;13.30;99.90
10964;DHT22;5534;48.784;9.190;2022-12-29T14:18:43;13.20;99.90
10964;DHT22;5534;48.784;9.190;2022-12-29T14:21:18;13.20;99.90
10964;DHT22;5534;48.784;9.190;2022-12-29T14:23:51;13.10;99.90
10964;DHT22;5534;48.784;9.190;2022-12-29T14:31:52;13.10;99.90
10964;DHT22;5534;48.784;9.190;2022-12-29T14:36:58;13.10;99.90
10964;DHT22;5534;48.784;9.190;2022-12-29T14:44:50;13.00;99.90
10964;DHT22;5534;48.784;9.190;2022-12-29T14:50:04;12.90;99.90
10964;DHT22;5534;48.784;9.190;2022-12-29T14:52:44;12.90;99.90
10964;DHT22;5534;48.784;9.190;2022-12-29T14:57:53;13.00;99.90
10964;DHT22;5534;48.784;9.190;2022-12-29T15:00:29;12.90;99.90
10964;DHT22;5534;48.784;9.190;2022-12-29T15:03:06;12.80;99.90
10964;DHT22;5534;48.784;9.190;2022-12-29T15:05:45;12.90;99.90
10964;DHT22;5534;48.784;9.190;2022-12-29T15:08:13;12.90;99.90
10964;DHT22;5534;48.784;9.190;2022-12-29T15:11:15;12.80;99.90
10964;DHT22;5534;48.784;9.190;2022-12-29T15:13:43;12.70;99.90
10964;DHT22;5534;48.784;9.190;2022-12-29T15:16:23;12.90;99.90
10964;DHT22;5534;48.784;9.190;2022-12-29T15:18:49;12.70;99.90
10964;DHT22;5534;48.784;9.190;2022-12-29T15:21:16;12.80;99.90
10964;DHT22;5534;48.784;9.190;2022-12-29T15:23:45;12.80;99.90
10964;DHT22;5534;48.784;9.190;2022-12-29T15:26:11;12.80;99.90
10964;DHT22;5534;48.784;9.190;2022-12-29T15:28:43;12.70;99.90
10964;DHT22;5534;48.784;9.190;2022-12-29T15:31:19;12.70;99.90
10964;DHT22;5534;48.784;9.190;2022-12-29T15:33:48;12.80;99.90
10964;DHT22;5534;48.784;9.190;2022-12-29T15:36:28;12.80;99.90
10964;DHT22;5534;48.784;9.190;2022-12-29T15:38:55;12.70;99.90
10964;DHT22;5534;48.784;9.190;2022-12-29T15:41:53;12.70;99.90
10964;DHT22;5534;48.784;9.190;2022-12-29T15:44:42;12.80;99.90
10964;DHT22;5534;48.784;9.190;2022-12-29T15:49:47;12.80;99.90
10964;DHT22;5534;48.784;9.190;2022-12-29T15:52:18;12.90;99.90
10964;DHT22;5534;48.784;9.190;2022-12-29T15:54:45;12.80;99.90
10964;DHT22;5534;48.784;9.190;2022-12-29T15:57:24;13.00;99.90
10964;DHT22;5534;48.784;9.190;2022-12-29T15:59:50;13.30;99.90
10964;DHT22;5534;48.784;9.190;2022-12-29T16:02:17;13.00;99.90
10964;DHT22;5534;48.784;9.190;2022-12-29T16:04:43;13.00;99.90
10964;DHT22;5534;48.784;9.190;2022-12-29T16:07:27;12.60;99.90
10964;DHT22;5534;48.784;9.190;2022-12-29T16:09:58;12.40;99.90
10964;DHT22;5534;48.784;9.190;2022-12-29T16:12:33;12.30;99.90
10964;DHT22;5534;48.784;9.190;2022-12-29T16:15:03;12.20;99.90
10964;DHT22;5534;48.784;9.190;2022-12-29T16:17:31;12.20;99.90
10964;DHT22;5534;48.784;9.190;2022-12-29T16:19:59;12.10;99.90
10964;DHT22;5534;48.784;9.190;2022-12-29T16:22:34;12.10;99.90
10964;DHT22;5534;48.784;9.190;2022-12-29T16:25:06;12.00;99.90
10964;DHT22;5534;48.784;9.190;2022-12-29T16:27:41;12.10;99.90
10964;DHT22;5534;48.784;9.190;2022-12-29T16:30:20;12.10;99.90
10964;DHT22;5534;48.784;9.190;2022-12-29T16:32:58;12.00;99.90
10964;DHT22;5534;48.784;9.190;2022-12-29T16:35:26;12.10;99.90
10964;DHT22;5534;48.784;9.190;2022-12-29T16:38:18;12.00;99.90
10964;DHT22;5534;48.784;9.190;2022-12-29T16:41:02;12.10;99.90
10964;DHT22;5534;48.784;9.190;2022-12-29T16:43:33;12.10;99.90
10964;DHT22;5534;48.784;9.190;2022-12-29T16:48:27;12.10;99.90
10964;DHT22;5534;48.784;9.190;2022-12-29T16:51:05;12.00;99.90
10964;DHT22;5534;48.784;9.190;2022-12-29T16:53:35;12.20;99.90
10964;DHT22;5534;48.784;9.190;2022-12-29T16:56:13;12.30;99.90
10964;DHT22;5534;48.784;9.190;2022-12-29T16:58:40;12.40;99.90
10964;DHT22;5534;48.784;9.190;2022-12-29T17:01:06;12.20;99.90
10964;DHT22;5534;48.784;9.190;2022-12-29T17:03:43;12.30;99.90
10964;DHT22;5534;48.784;9.190;2022-12-29T17:06:15;12.20;99.90
10964;DHT22;5534;48.784;9.190;2022-12-29T17:08:42;12.20;99.90
10964;DHT22;5534;48.784;9.190;2022-12-29T17:11:22;12.10;99.90
10964;DHT22;5534;48.784;9.190;2022-12-29T17:16:59;12.20;99.90
10964;DHT22;5534;48.784;9.190;2022-12-29T17:19:31;12.20;99.90
10964;DHT22;5534;48.784;9.190;2022-12-29T17:21:57;12.10;99.90
10964;DHT22;5534;48.784;9.190;2022-12-29T17:24:23;12.10;99.90
10964;DHT22;5534;48.784;9.190;2022-12-29T17:26:52;12.20;99.90
10964;DHT22;5534;48.784;9.190;2022-12-29T17:29:36;12.00;99.90
10964;DHT22;5534;48.784;9.190;2022-12-29T17:32:04;12.00;99.90
10964;DHT22;5534;48.784;9.190;2022-12-29T17:34:31;12.10;99.90
10964;DHT22;5534;48.784;9.190;2022-12-29T17:36:57;11.80;99.90
10964;DHT22;5534;48.784;9.190;2022-12-29T17:39:23;11.70;99.90
10964;DHT22;5534;48.784;9.190;2022-12-29T17:41:49;11.60;99.90
10964;DHT22;5534;48.784;9.190;2022-12-29T17:44:16;11.60;99.90
10964;DHT22;5534;48.784;9.190;2022-12-29T17:46:44;11.80;99.90
10964;DHT22;5534;48.784;9.190;2022-12-29T17:49:14;11.80;99.90
10964;DHT22;5534;48.784;9.190;2022-12-29T17:51:42;11.90;99.90
10964;DHT22;5534;48.784;9.190;2022-12-29T17:54:21;11.90;99.90
10964;DHT22;5534;48.784;9.190;2022-12-29T17:56:48;12.00;99.90
10964;DHT22;5534;48.784;9.190;2022-12-29T17:59:14;11.90;99.90
10964;DHT22;5534;48.784;9.190;2022-12-29T18:01:43;11.60;99.90
10964;DHT22;5534;48.784;9.190;2022-12-29T18:04:15;11.60;99.90
10964;DHT22;5534;48.784;9.190;2022-12-29T18:06:41;11.70;99.90
10964;DHT22;5534;48.784;9.190;2022-12-29T18:09:08;12.00;99.90
10964;DHT22;5534;48.784;9.190;2022-12-29T18:11:38;11.80;99.90
10964;DHT22;5534;48.784;9.190;2022-12-29T18:14:07;11.90;99.90
10964;DHT22;5534;48.784;9.190;2022-12-29T18:16:35;11.80;99.90
10964;DHT22;5534;48.784;9.190;2022-12-29T18:19:01;11.80;99.90
10964;DHT22;5534;48.784;9.190;2022-12-29T18:21:27;12.00;99.90
10964;DHT22;5534;48.784;9.190;2022-12-29T18:23:53;11.80;99.90
10964;DHT22;5534;48.784;9.190;2022-12-29T18:26:21;11.60;99.90
10964;DHT22;5534;48.784;9.190;2022-12-29T18:28:51;11.70;99.90
10964;DHT22;5534;48.784;9.190;2022-12-29T18:31:26;11.80;99.90
10964;DHT22;5534;48.784;9.190;2022-12-29T18:33:53;11.70;99.90